createdAt,value
2018-07-07T00:00:34.915Z,67.69
2018-07-07T00:01:34.902Z,67.02
2018-07-07T00:02:34.897Z,67.49
2018-07-07T00:03:34.903Z,67.69
2018-07-07T00:04:34.884Z,67.97
2018-07-07T00:05:34.883Z,68.26
2018-07-07T00:06:34.873Z,68.74
2018-07-07T00:07:34.617Z,68.84
2018-07-07T00:08:34.861Z,68.84
2018-07-07T00:09:34.859Z,69.6
2018-07-07T00:10:34.600Z,69.79
2018-07-07T00:11:34.845Z,70.27
2018-07-07T00:12:34.839Z,70.07
2018-07-07T00:13:34.836Z,69.98
2018-07-07T00:14:34.829Z,70.56
2018-07-07T00:15:34.833Z,70.27
2018-07-07T00:16:34.832Z,70.27
2018-07-07T00:17:34.812Z,71.51
2018-07-07T00:18:34.809Z,71.22
2018-07-07T00:19:34.803Z,71.32
2018-07-07T00:20:34.795Z,71.22
2018-07-07T00:21:34.788Z,71.61
2018-07-07T00:22:34.784Z,71.51
2018-07-07T00:23:34.787Z,71.8
2018-07-07T00:24:34.771Z,71.67
2018-07-07T00:25:34.780Z,71.47
2018-07-07T00:26:34.764Z,71.76
2018-07-07T00:27:34.755Z,72.43
2018-07-07T00:28:34.749Z,72.72
2018-07-07T00:29:34.752Z,72.81
2018-07-07T00:30:34.987Z,72.62
2018-07-07T00:31:34.733Z,72.91
2018-07-07T00:32:34.729Z,73.1
2018-07-07T00:33:34.721Z,73.48
2018-07-07T00:34:34.713Z,73.96
2018-07-07T00:35:34.712Z,73.96
2018-07-07T00:36:34.708Z,73.77
2018-07-07T00:37:34.697Z,74.05
2018-07-07T00:38:34.689Z,74.15
2018-07-07T00:39:34.685Z,74.24
2018-07-07T00:40:34.679Z,74.91
2018-07-07T00:41:34.673Z,74.91
2018-07-07T00:42:34.679Z,75.1
2018-07-07T00:43:34.667Z,74.82
2018-07-07T00:44:34.656Z,75.3
2018-07-07T00:45:34.397Z,75.68
2018-07-07T00:46:34.644Z,75.39
2018-07-07T00:47:34.641Z,75.3
2018-07-07T00:48:34.630Z,75.59
2018-07-07T00:49:34.627Z,75.59
2018-07-07T00:50:34.637Z,75.68
2018-07-07T00:51:34.612Z,76.12
2018-07-07T00:52:34.606Z,76.92
2018-07-07T00:53:34.612Z,77.17
2018-07-07T00:54:34.743Z,77.55
2018-07-07T00:55:34.588Z,78.51
2018-07-07T00:56:34.585Z,78.51
2018-07-07T00:57:34.576Z,79.56
2018-07-07T00:58:34.570Z,79.46
2018-07-07T00:59:34.569Z,79.27
2018-07-07T01:00:34.560Z,79.36
2018-07-07T01:01:34.802Z,80.04
2018-07-07T01:02:34.545Z,80.41
2018-07-07T01:03:34.542Z,80.51
2018-07-07T01:04:34.534Z,80.7
2018-07-07T01:05:34.528Z,80.8
2018-07-07T01:06:34.527Z,80.9
2018-07-07T01:07:34.517Z,81.18
2018-07-07T01:08:34.514Z,81.85
2018-07-07T01:09:34.640Z,81.95
2018-07-07T01:10:34.531Z,81.76
2018-07-07T01:11:34.495Z,81.95
2018-07-07T01:12:34.488Z,81.95
2018-07-07T01:13:34.477Z,81.66
2018-07-07T01:14:34.482Z,81.85
2018-07-07T01:15:34.465Z,82.32
2018-07-07T01:16:34.459Z,82.81
2018-07-07T01:17:34.452Z,83
2018-07-07T01:18:34.194Z,83.38
2018-07-07T01:19:34.441Z,83.18
2018-07-07T01:20:34.434Z,83.47
2018-07-07T01:21:34.427Z,83.47
2018-07-07T01:22:34.421Z,83.95
2018-07-07T01:23:34.168Z,84.05
2018-07-07T01:24:34.409Z,84.14
2018-07-07T01:25:34.403Z,84.33
2018-07-07T01:26:34.395Z,84.14
2018-07-07T01:27:34.390Z,84.23
2018-07-07T01:28:34.384Z,84.39
2018-07-07T01:29:34.378Z,84.43
2018-07-07T01:30:34.375Z,84.67
2018-07-07T01:31:34.365Z,84.67
2018-07-07T01:32:34.622Z,85.34
2018-07-07T01:33:34.355Z,85.34
2018-07-07T01:34:34.350Z,85.44
2018-07-07T01:35:34.341Z,85.72
2018-07-07T01:36:34.338Z,85.91
2018-07-07T01:37:34.326Z,85.82
2018-07-07T01:38:34.335Z,86.39
2018-07-07T01:39:34.062Z,86.1
2018-07-07T01:40:34.307Z,86.2
2018-07-07T01:41:34.306Z,86.39
2018-07-07T01:42:34.295Z,86.1
2018-07-07T01:43:34.288Z,86.49
2018-07-07T01:44:34.288Z,86.58
2018-07-07T01:45:34.287Z,87.15
2018-07-07T01:46:34.268Z,86.96
2018-07-07T01:47:34.265Z,86.87
2018-07-07T01:48:34.271Z,87.54
2018-07-07T01:49:34.249Z,87.63
2018-07-07T01:50:34.242Z,87.63
2018-07-07T01:51:34.244Z,87.82
2018-07-07T01:52:34.229Z,87.92
2018-07-07T01:53:33.972Z,87.63
2018-07-07T01:54:34.215Z,87.92
2018-07-07T01:55:34.210Z,88.35
2018-07-07T01:56:34.203Z,88.26
2018-07-07T01:57:34.195Z,88.11
2018-07-07T01:58:34.194Z,88.73
2018-07-07T01:59:34.183Z,88.01
2018-07-07T02:00:33.967Z,88.54
2018-07-07T02:01:34.173Z,88.64
2018-07-07T02:02:34.167Z,89.02
2018-07-07T02:03:34.156Z,88.83
2018-07-07T02:04:34.153Z,88.92
2018-07-07T02:05:34.148Z,89.02
2018-07-07T02:06:34.145Z,89.02
2018-07-07T02:07:34.129Z,89.21
2018-07-07T02:08:34.134Z,89.02
2018-07-07T02:09:34.116Z,88.92
2018-07-07T02:10:34.299Z,88.92
2018-07-07T02:11:34.102Z,89.21
2018-07-07T02:12:34.112Z,89.59
2018-07-07T02:13:34.090Z,89.4
2018-07-07T02:14:34.082Z,89.5
2018-07-07T02:15:34.080Z,89.69
2018-07-07T02:16:33.819Z,90.17
2018-07-07T02:17:34.063Z,90.17
2018-07-07T02:18:34.056Z,90.45
2018-07-07T02:19:34.050Z,90.55
2018-07-07T02:20:34.044Z,90.17
2018-07-07T02:21:34.035Z,90.17
2018-07-07T02:22:33.787Z,90.55
2018-07-07T02:23:34.021Z,90.73
2018-07-07T02:24:33.762Z,90.36
2018-07-07T02:25:33.755Z,90.36
2018-07-07T02:26:34.007Z,90.17
2018-07-07T02:27:33.997Z,90.26
2018-07-07T02:28:33.736Z,90.64
2018-07-07T02:29:33.978Z,90.93
2018-07-07T02:30:33.972Z,90.83
2018-07-07T02:31:33.967Z,91.02
2018-07-07T02:32:33.707Z,90.88
2018-07-07T02:33:33.963Z,91.02
2018-07-07T02:34:33.945Z,91.12
2018-07-07T02:35:33.938Z,90.98
2018-07-07T02:36:33.930Z,91.07
2018-07-07T02:37:33.924Z,91.17
2018-07-07T02:38:33.915Z,91.17
2018-07-07T02:39:33.911Z,91.17
2018-07-07T02:40:33.909Z,91.17
2018-07-07T02:41:33.900Z,91.27
2018-07-07T02:42:33.640Z,91.55
2018-07-07T02:43:33.886Z,91.64
2018-07-07T02:44:33.881Z,91.64
2018-07-07T02:45:33.884Z,91.46
2018-07-07T02:46:33.866Z,91.74
2018-07-07T02:47:33.854Z,91.64
2018-07-07T02:48:33.858Z,91.64
2018-07-07T02:49:33.850Z,91.83
2018-07-07T02:50:33.833Z,92.12
2018-07-07T02:51:33.835Z,92.03
2018-07-07T02:52:33.817Z,92.03
2018-07-07T02:53:33.814Z,92.22
2018-07-07T02:54:33.805Z,92.22
2018-07-07T02:55:33.803Z,91.93
2018-07-07T02:56:33.791Z,92.03
2018-07-07T02:57:33.784Z,92.41
2018-07-07T02:58:33.526Z,92.41
2018-07-07T02:59:33.766Z,92.41
2018-07-07T03:00:33.759Z,92.32
2018-07-07T03:01:33.765Z,92.6
2018-07-07T03:02:33.746Z,92.69
2018-07-07T03:03:33.493Z,92.6
2018-07-07T03:04:33.732Z,92.6
2018-07-07T03:05:33.730Z,92.6
2018-07-07T03:06:33.720Z,92.6
2018-07-07T03:07:33.719Z,92.41
2018-07-07T03:08:33.708Z,92.32
2018-07-07T03:09:33.694Z,92.22
2018-07-07T03:10:33.689Z,92.5
2018-07-07T03:11:33.681Z,92.6
2018-07-07T03:12:33.689Z,92.22
2018-07-07T03:13:33.674Z,92.22
2018-07-07T03:14:33.663Z,92.5
2018-07-07T03:15:33.656Z,92.22
2018-07-07T03:16:33.646Z,92.41
2018-07-07T03:17:33.644Z,91.93
2018-07-07T03:18:33.383Z,92.41
2018-07-07T03:19:33.636Z,92.32
2018-07-07T03:20:33.366Z,92.69
2018-07-07T03:21:33.357Z,92.32
2018-07-07T03:22:33.665Z,92.36
2018-07-07T03:23:33.612Z,92.65
2018-07-07T03:24:33.340Z,92.46
2018-07-07T03:25:33.332Z,92.46
2018-07-07T03:26:33.577Z,92.65
2018-07-07T03:27:33.567Z,92.46
2018-07-07T03:28:33.313Z,92.46
2018-07-07T03:29:33.563Z,92.65
2018-07-07T03:30:33.550Z,92.55
2018-07-07T03:31:33.545Z,92.07
2018-07-07T03:32:33.532Z,92.12
2018-07-07T03:33:33.529Z,92.02
2018-07-07T03:34:33.521Z,92.02
2018-07-07T03:35:33.518Z,91.74
2018-07-07T03:36:33.511Z,91.78
2018-07-07T03:37:33.750Z,91.5
2018-07-07T03:38:33.497Z,91.16
2018-07-07T03:39:33.488Z,90.97
2018-07-07T03:40:33.515Z,90.16
2018-07-07T03:41:33.479Z,89.2
2018-07-07T03:42:33.472Z,88.81
2018-07-07T03:43:33.466Z,88.72
2018-07-07T03:44:33.459Z,88.29
2018-07-07T03:45:33.455Z,87.43
2018-07-07T03:46:33.449Z,86.8
2018-07-07T03:47:33.446Z,86.22
2018-07-07T03:48:33.451Z,86.17
2018-07-07T03:49:33.434Z,84.97
2018-07-07T03:50:33.428Z,83.82
2018-07-07T03:51:33.425Z,83.29
2018-07-07T03:52:33.422Z,82.27
2018-07-07T03:53:33.418Z,81.98
2018-07-07T03:54:33.413Z,81.35
2018-07-07T03:55:33.418Z,80.4
2018-07-07T03:56:33.405Z,79.76
2018-07-07T03:57:33.404Z,79.09
2018-07-07T03:58:33.400Z,77.78
2018-07-07T03:59:33.397Z,76.96
2018-07-07T04:00:33.395Z,76
2018-07-07T04:01:33.396Z,75.07
2018-07-07T04:02:33.138Z,73.67
2018-07-07T04:03:33.387Z,72.42
2018-07-07T04:04:33.385Z,71.49
2018-07-07T04:05:33.131Z,70.24
2018-07-07T04:06:33.381Z,69.22
2018-07-07T04:07:33.382Z,67.42
2018-07-07T04:08:33.378Z,66.65
2018-07-07T04:09:33.378Z,65.24
2018-07-07T04:10:33.377Z,64.4
2018-07-07T04:11:33.125Z,62.76
2018-07-07T04:12:33.376Z,62.22
2018-07-07T04:13:33.375Z,61.16
2018-07-07T04:14:33.420Z,60.71
2018-07-07T04:15:33.378Z,60.13
2018-07-07T04:16:33.384Z,58.7
2018-07-07T04:17:33.377Z,57.93
2018-07-07T04:18:33.380Z,57.09
2018-07-07T04:19:33.383Z,56.35
2018-07-07T04:20:33.381Z,55.57
2018-07-07T04:21:33.386Z,54.73
2018-07-07T04:22:33.385Z,53.19
2018-07-07T04:23:33.387Z,52.82
2018-07-07T04:24:33.388Z,52.63
2018-07-07T04:25:33.391Z,52.36
2018-07-07T04:26:33.145Z,51.59
2018-07-07T04:27:33.396Z,50.55
2018-07-07T04:28:33.398Z,49
2018-07-07T04:29:33.406Z,48.93
2018-07-07T04:30:33.183Z,48.64
2018-07-07T04:31:33.157Z,48.06
2018-07-07T04:32:33.161Z,47.98
2018-07-07T04:33:33.420Z,47.13
2018-07-07T04:34:33.420Z,47.03
2018-07-07T04:35:33.430Z,46.75
2018-07-07T04:36:33.434Z,46.45
2018-07-07T04:37:33.435Z,46.28
2018-07-07T04:38:33.440Z,45.7
2018-07-07T04:39:33.452Z,45.51
2018-07-07T04:40:33.197Z,45.02
2018-07-07T04:41:33.454Z,45.31
2018-07-07T04:42:33.460Z,45.2
2018-07-07T04:43:33.461Z,45.39
2018-07-07T04:44:33.470Z,45.48
2018-07-07T04:45:33.470Z,45.75
2018-07-07T04:46:33.475Z,46.04
2018-07-07T04:47:33.486Z,46.31
2018-07-07T04:48:33.488Z,47.06
2018-07-07T04:49:33.488Z,47.81
2018-07-07T04:50:33.489Z,48.57
2018-07-07T04:51:33.495Z,49.41
2018-07-07T04:52:33.607Z,50.07
2018-07-07T04:53:33.499Z,50.71
2018-07-07T04:54:33.499Z,51.29
2018-07-07T04:55:33.250Z,51.95
2018-07-07T04:56:33.502Z,52.33
2018-07-07T04:57:33.254Z,52.53
2018-07-07T04:58:33.507Z,52.62
2018-07-07T04:59:33.509Z,53.47
2018-07-07T05:00:33.509Z,53.08
2018-07-07T05:01:33.511Z,53.47
2018-07-07T05:02:33.515Z,53.75
2018-07-07T05:03:33.513Z,54.24
2018-07-07T05:04:33.601Z,54.05
2018-07-07T05:05:33.261Z,54.62
2018-07-07T05:06:33.262Z,54.98
2018-07-07T05:07:33.514Z,55.85
2018-07-07T05:08:33.514Z,55.56
2018-07-07T05:09:33.264Z,56.01
2018-07-07T05:10:33.515Z,56.21
2018-07-07T05:11:33.262Z,56.4
2018-07-07T05:12:33.265Z,56.69
2018-07-07T05:13:33.521Z,57.34
2018-07-07T05:14:33.523Z,57.43
2018-07-07T05:15:33.650Z,58.11
2018-07-07T05:16:33.279Z,58.2
2018-07-07T05:17:33.513Z,57.92
2018-07-07T05:18:33.512Z,57.62
2018-07-07T05:19:33.260Z,57.56
2018-07-07T05:20:33.512Z,57.75
2018-07-07T05:21:33.523Z,57.75
2018-07-07T05:22:33.509Z,57.27
2018-07-07T05:23:33.512Z,58.04
2018-07-07T05:24:33.508Z,58.04
2018-07-07T05:25:33.507Z,57.37
2018-07-07T05:26:33.508Z,57.85
2018-07-07T05:27:33.510Z,58.11
2018-07-07T05:28:33.507Z,58.01
2018-07-07T05:29:33.508Z,58.69
2018-07-07T05:30:33.503Z,58.11
2018-07-07T05:31:33.510Z,58.4
2018-07-07T05:32:33.509Z,58.4
2018-07-07T05:33:33.500Z,58.4
2018-07-07T05:34:33.501Z,58.69
2018-07-07T05:35:33.249Z,58.23
2018-07-07T05:36:33.498Z,58.42
2018-07-07T05:37:33.497Z,58.33
2018-07-07T05:38:33.498Z,58.23
2018-07-07T05:39:33.504Z,57.85
2018-07-07T05:40:33.246Z,57.94
2018-07-07T05:41:33.505Z,58.2
2018-07-07T05:42:33.500Z,58.49
2018-07-07T05:43:33.499Z,58.59
2018-07-07T05:44:33.497Z,58.88
2018-07-07T05:45:33.504Z,59.27
2018-07-07T05:46:33.496Z,59.17
2018-07-07T05:47:33.493Z,59.17
2018-07-07T05:48:33.492Z,59.55
2018-07-07T05:49:33.232Z,59.55
2018-07-07T05:50:33.495Z,58.88
2018-07-07T05:51:33.490Z,58.78
2018-07-07T05:52:33.481Z,59.36
2018-07-07T05:53:33.490Z,59.36
2018-07-07T05:54:33.479Z,59.55
2018-07-07T05:55:33.482Z,58.97
2018-07-07T05:56:33.477Z,59.36
2018-07-07T05:57:33.602Z,59.36
2018-07-07T05:58:33.478Z,59.07
2018-07-07T05:59:33.222Z,58.88
2018-07-07T06:00:33.222Z,58.78
2018-07-07T06:01:33.472Z,58.62
2018-07-07T06:02:33.472Z,57.68
2018-07-07T06:03:33.473Z,56.43
2018-07-07T06:04:33.219Z,56.46
2018-07-07T06:05:33.220Z,56.07
2018-07-07T06:06:33.472Z,56.16
2018-07-07T06:07:33.471Z,55.78
2018-07-07T06:08:33.475Z,55.13
2018-07-07T06:09:33.471Z,54.46
2018-07-07T06:10:33.471Z,54.36
2018-07-07T06:11:33.474Z,53.91
2018-07-07T06:12:33.474Z,53.33
2018-07-07T06:13:33.728Z,52.39
2018-07-07T06:14:33.720Z,50.96
2018-07-07T06:15:33.479Z,50.4
2018-07-07T06:16:33.490Z,49.65
2018-07-07T06:17:33.485Z,49.49
2018-07-07T06:18:33.496Z,48.35
2018-07-07T06:19:33.492Z,47.98
2018-07-07T06:20:33.500Z,46.65
2018-07-07T06:21:33.247Z,46.16
2018-07-07T06:22:33.527Z,45.58
2018-07-07T06:23:33.519Z,45.41
2018-07-07T06:24:33.516Z,45.21
2018-07-07T06:25:33.522Z,44.83
2018-07-07T06:26:33.729Z,44.54
2018-07-07T06:27:33.280Z,44.46
2018-07-07T06:28:33.737Z,43.78
2018-07-07T06:29:33.539Z,43.22
2018-07-07T06:30:33.293Z,42.66
2018-07-07T06:31:33.556Z,42.36
2018-07-07T06:32:33.564Z,42.05
2018-07-07T06:33:33.565Z,42.05
2018-07-07T06:34:33.571Z,42.25
2018-07-07T06:35:33.577Z,42.13
2018-07-07T06:36:33.584Z,42.61
2018-07-07T06:37:33.592Z,42.99
2018-07-07T06:38:33.596Z,43.01
2018-07-07T06:39:33.602Z,42.52
2018-07-07T06:40:33.608Z,42.08
2018-07-07T06:41:33.614Z,41.22
2018-07-07T06:42:33.627Z,40.47
2018-07-07T06:43:33.631Z,40.39
2018-07-07T06:44:33.894Z,38.57
2018-07-07T06:45:33.403Z,37.62
2018-07-07T06:46:33.657Z,37.15
2018-07-07T06:47:33.666Z,37.05
2018-07-07T06:48:33.686Z,37.25
2018-07-07T06:49:33.435Z,36.58
2018-07-07T06:50:33.443Z,35.02
2018-07-07T06:51:33.705Z,35.12
2018-07-07T06:52:33.715Z,36.1
2018-07-07T06:53:33.773Z,36.41
2018-07-07T06:54:33.735Z,34.55
2018-07-07T06:55:33.747Z,34.38
2018-07-07T06:56:33.757Z,34.18
2018-07-07T06:57:33.770Z,34.28
2018-07-07T06:58:33.784Z,34.38
2018-07-07T06:59:33.938Z,33.59
2018-07-07T07:00:33.805Z,33.02
2018-07-07T07:02:33.824Z,33.05
2018-07-07T07:03:34.015Z,32.7
2018-07-07T07:04:33.849Z,31.63
2018-07-07T07:05:33.860Z,30.39
2018-07-07T07:06:34.842Z,29.82
2018-07-07T07:07:33.640Z,29.52
2018-07-07T07:08:33.907Z,29.05
2018-07-07T07:09:33.914Z,28.17
2018-07-07T07:10:33.930Z,27.2
2018-07-07T07:11:33.939Z,26.91
2018-07-07T07:12:33.953Z,27.32
2018-07-07T07:13:33.972Z,27.14
2018-07-07T07:14:33.986Z,26.46
2018-07-07T07:15:33.994Z,25.96
2018-07-07T07:16:34.014Z,25.78
2018-07-07T07:17:34.028Z,25.31
2018-07-07T07:18:34.042Z,25.12
2018-07-07T07:19:34.060Z,24.34
2018-07-07T07:20:34.075Z,24.24
2018-07-07T07:21:33.836Z,23.86
2018-07-07T07:22:34.103Z,23.57
2018-07-07T07:23:34.130Z,23.66
2018-07-07T07:24:34.135Z,23.17
2018-07-07T07:25:34.152Z,23.47
2018-07-07T07:26:34.173Z,23.55
2018-07-07T07:27:34.188Z,23.65
2018-07-07T07:28:34.202Z,23.86
2018-07-07T07:29:34.218Z,23.96
2018-07-07T07:30:34.238Z,22.5
2018-07-07T07:31:34.252Z,22.2
2018-07-07T07:32:34.270Z,23
2018-07-07T07:33:34.286Z,21.72
2018-07-07T07:34:34.322Z,21.13
2018-07-07T07:35:34.069Z,21.62
2018-07-07T07:36:34.345Z,21.72
2018-07-07T07:37:34.361Z,21.42
2018-07-07T07:38:34.122Z,21.34
2018-07-07T07:39:34.392Z,21.44
2018-07-07T07:40:34.409Z,21.25
2018-07-07T07:41:34.429Z,20.76
2018-07-07T07:42:34.445Z,20.67
2018-07-07T07:43:34.464Z,20.67
2018-07-07T07:44:34.481Z,20.07
2018-07-07T07:45:34.498Z,20.27
2018-07-07T07:46:34.519Z,20.56
2018-07-07T07:47:34.535Z,19.78
2018-07-07T07:48:34.564Z,20.17
2018-07-07T07:49:34.573Z,20.65
2018-07-07T07:50:34.599Z,20.26
2018-07-07T07:51:34.609Z,20.86
2018-07-07T07:52:34.629Z,20.26
2018-07-07T07:53:34.650Z,19.67
2018-07-07T07:54:34.675Z,20.06
2018-07-07T07:55:34.454Z,19.95
2018-07-07T07:56:34.448Z,20.04
2018-07-07T07:57:34.467Z,20.83
2018-07-07T07:58:34.741Z,21.12
2018-07-07T07:59:34.762Z,21.7
2018-07-07T08:00:34.819Z,22.19
2018-07-07T08:01:34.538Z,21.7
2018-07-07T08:02:34.810Z,21.41
2018-07-07T08:03:34.828Z,21.32
2018-07-07T08:04:34.844Z,20.83
2018-07-07T08:05:34.862Z,20.53
2018-07-07T08:06:34.884Z,20.73
2018-07-07T08:07:34.897Z,21.03
2018-07-07T08:08:34.668Z,20.83
2018-07-07T08:09:34.932Z,20.45
2018-07-07T08:10:34.949Z,20.54
2018-07-07T08:11:34.966Z,20.83
2018-07-07T08:12:34.989Z,21.32
2018-07-07T08:13:35.000Z,21.11
2018-07-07T08:14:35.019Z,21.41
2018-07-07T08:15:34.798Z,20.91
2018-07-07T08:16:34.804Z,21.2
2018-07-07T08:17:35.319Z,21.59
2018-07-07T08:18:35.085Z,21.79
2018-07-07T08:19:35.163Z,21.79
2018-07-07T08:20:35.124Z,21.79
2018-07-07T08:21:35.136Z,21.39
2018-07-07T08:22:35.272Z,21.39
2018-07-07T08:23:35.172Z,21.58
2018-07-07T08:24:35.185Z,21.29
2018-07-07T08:25:35.202Z,22.36
2018-07-07T08:26:35.218Z,22.06
2018-07-07T08:27:35.239Z,21.57
2018-07-07T08:28:34.998Z,21.36
2018-07-07T08:29:35.265Z,21.46
2018-07-07T08:30:35.285Z,21.94
2018-07-07T08:31:35.298Z,22.03
2018-07-07T08:32:35.061Z,23.02
2018-07-07T08:33:35.327Z,23.39
2018-07-07T08:34:35.580Z,23.68
2018-07-07T08:35:35.107Z,23.86
2018-07-07T08:36:35.549Z,24.15
2018-07-07T08:37:35.394Z,24.84
2018-07-07T08:38:35.414Z,25.03
2018-07-07T08:39:35.419Z,24.84
2018-07-07T08:40:35.183Z,24.35
2018-07-07T08:41:35.450Z,24.65
2018-07-07T08:42:35.475Z,24.25
2018-07-07T08:43:35.480Z,24.73
2018-07-07T08:44:35.495Z,25.02
2018-07-07T08:45:35.510Z,25.01
2018-07-07T08:46:35.523Z,26.09
2018-07-07T08:47:35.538Z,26.09
2018-07-07T08:48:35.855Z,25.79
2018-07-07T08:49:35.574Z,25.7
2018-07-07T08:50:35.589Z,25.7
2018-07-07T08:51:35.598Z,25.79
2018-07-07T08:52:35.612Z,25.79
2018-07-07T08:53:35.635Z,25.2
2018-07-07T08:54:35.660Z,25.28
2018-07-07T08:55:35.656Z,25.18
2018-07-07T08:56:35.670Z,24.98
2018-07-07T08:57:35.690Z,25.28
2018-07-07T08:58:35.702Z,25.76
2018-07-07T08:59:35.461Z,25.85
2018-07-07T09:00:35.730Z,26.53
2018-07-07T09:01:35.749Z,26.61
2018-07-07T09:02:35.813Z,26.03
2018-07-07T09:03:35.774Z,25.83
2018-07-07T09:04:35.528Z,26.21
2018-07-07T09:05:35.796Z,26.59
2018-07-07T09:06:35.811Z,26.78
2018-07-07T09:07:35.935Z,27.27
2018-07-07T09:08:35.837Z,27.94
2018-07-07T09:09:35.845Z,28.13
2018-07-07T09:10:35.857Z,28.61
2018-07-07T09:11:35.613Z,28.59
2018-07-07T09:12:35.901Z,29.07
2018-07-07T09:13:35.884Z,29.46
2018-07-07T09:16:35.913Z,29.66
2018-07-07T09:17:35.923Z,30.05
2018-07-07T09:18:37.208Z,30.24
2018-07-07T09:19:35.961Z,29.95
2018-07-07T09:20:35.949Z,30.05
2018-07-07T09:21:36.211Z,30.34
2018-07-07T09:22:35.968Z,30.15
2018-07-07T09:23:35.987Z,30.15
2018-07-07T09:24:36.152Z,30.44
2018-07-07T09:25:35.994Z,31.22
2018-07-07T09:26:36.010Z,31.12
2018-07-07T09:27:36.013Z,31.12
2018-07-07T09:28:36.017Z,31.12
2018-07-07T09:29:36.031Z,31.3
2018-07-07T09:30:36.039Z,30.71
2018-07-07T09:31:35.793Z,30.52
2018-07-07T09:32:36.052Z,30.13
2018-07-07T09:33:36.060Z,30.03
2018-07-07T09:34:36.067Z,30.03
2018-07-07T09:35:36.079Z,29.83
2018-07-07T09:36:36.085Z,29.83
2018-07-07T09:37:36.107Z,29.64
2018-07-07T09:38:36.104Z,28.77
2018-07-07T09:39:36.107Z,29.25
2018-07-07T09:40:36.114Z,28.67
2018-07-07T09:41:36.121Z,28.55
2018-07-07T09:42:36.151Z,27.87
2018-07-07T09:43:36.136Z,27.68
2018-07-07T09:44:36.143Z,27.66
2018-07-07T09:45:36.151Z,28.74
2018-07-07T09:46:36.166Z,29.6
2018-07-07T09:47:36.167Z,28.82
2018-07-07T09:48:36.182Z,28.53
2018-07-07T09:49:36.178Z,28.72
2018-07-07T09:50:35.936Z,29.21
2018-07-07T09:51:36.195Z,29.6
2018-07-07T09:52:36.454Z,29.99
2018-07-07T09:53:36.207Z,30.18
2018-07-07T09:55:36.221Z,30.39
2018-07-07T09:56:36.232Z,30.1
2018-07-07T09:57:36.236Z,30.31
2018-07-07T09:58:36.243Z,29.53
2018-07-07T09:59:36.252Z,29.24
2018-07-07T10:00:36.257Z,29.04
2018-07-07T10:01:36.269Z,29.43
2018-07-07T10:02:36.274Z,29.32
2018-07-07T10:03:36.289Z,29.81
2018-07-07T10:04:36.328Z,29.71
2018-07-07T10:05:36.294Z,29.91
2018-07-07T10:06:36.046Z,29.03
2018-07-07T10:07:36.356Z,27.08
2018-07-07T10:08:36.309Z,27.28
2018-07-07T10:09:36.330Z,27.94
2018-07-07T10:10:36.085Z,27.93
2018-07-07T10:11:36.329Z,28.51
2018-07-07T10:12:36.337Z,28.9
2018-07-07T10:13:36.446Z,29.66
2018-07-07T10:14:36.359Z,29.38
2018-07-07T10:15:36.364Z,29.46
2018-07-07T10:16:36.387Z,29.06
2018-07-07T10:17:36.367Z,28.97
2018-07-07T10:18:36.121Z,29.18
2018-07-07T10:19:36.127Z,29.16
2018-07-07T10:20:36.166Z,29.16
2018-07-07T10:21:36.392Z,30.12
2018-07-07T10:22:36.398Z,30.22
2018-07-07T10:23:36.651Z,30.71
2018-07-07T10:24:36.405Z,31.76
2018-07-07T10:25:36.423Z,31.57
2018-07-07T10:26:36.420Z,31.37
2018-07-07T10:27:36.436Z,32.15
2018-07-07T10:28:36.430Z,32.15
2018-07-07T10:29:36.187Z,32.24
2018-07-07T10:30:36.441Z,31.85
2018-07-07T10:31:36.542Z,31.37
2018-07-07T10:32:36.456Z,31.66
2018-07-07T10:33:36.454Z,31.66
2018-07-07T10:34:36.454Z,31.47
2018-07-07T10:35:36.208Z,31.27
2018-07-07T10:36:36.465Z,31.18
2018-07-07T10:37:36.610Z,31.18
2018-07-07T10:38:36.477Z,31.47
2018-07-07T10:39:36.479Z,31.85
2018-07-07T10:40:36.481Z,31.84
2018-07-07T10:41:36.506Z,30.87
2018-07-07T10:42:36.493Z,31.45
2018-07-07T10:43:36.510Z,30.85
2018-07-07T10:44:36.517Z,31.24
2018-07-07T10:45:36.767Z,31.92
2018-07-07T10:46:36.510Z,31.73
2018-07-07T10:47:36.259Z,31.82
2018-07-07T10:48:36.516Z,32.31
2018-07-07T10:49:36.517Z,32.7
2018-07-07T10:50:36.523Z,33.17
2018-07-07T10:51:36.524Z,33.46
2018-07-07T10:52:36.276Z,33.17
2018-07-07T10:53:36.283Z,33.26
2018-07-07T10:54:36.787Z,33.25
2018-07-07T10:55:36.708Z,33.34
2018-07-07T10:56:36.547Z,34.02
2018-07-07T10:57:36.547Z,33.92
2018-07-07T10:58:36.548Z,33.64
2018-07-07T10:59:36.560Z,33.34
2018-07-07T11:00:36.302Z,33.92
2018-07-07T11:01:36.560Z,34.12
2018-07-07T11:02:36.686Z,34.31
2018-07-07T11:03:36.562Z,34.49
2018-07-07T11:04:36.567Z,34.39
2018-07-07T11:05:36.567Z,34.11
2018-07-07T11:06:36.577Z,33.64
2018-07-07T11:07:36.574Z,33.73
2018-07-07T11:08:36.576Z,33.34
2018-07-07T11:09:36.577Z,33.06
2018-07-07T11:10:36.580Z,33.54
2018-07-07T11:11:36.354Z,33.25
2018-07-07T11:12:36.587Z,33.25
2018-07-07T11:13:36.588Z,33.34
2018-07-07T11:14:36.593Z,32.86
2018-07-07T11:15:36.349Z,32.76
2018-07-07T11:16:36.601Z,33.17
2018-07-07T11:17:36.605Z,32.68
2018-07-07T11:18:36.604Z,33.07
2018-07-07T11:19:36.610Z,33.17
2018-07-07T11:20:36.357Z,33.57
2018-07-07T11:21:36.612Z,32.7
2018-07-07T11:22:36.618Z,32.41
2018-07-07T11:23:36.620Z,32.02
2018-07-07T11:24:36.633Z,32.12
2018-07-07T11:25:36.379Z,32.13
2018-07-07T11:26:36.376Z,32.62
2018-07-07T11:27:36.631Z,31.16
2018-07-07T11:28:36.636Z,31.16
2018-07-07T11:29:36.639Z,30.98
2018-07-07T11:30:36.389Z,29.91
2018-07-07T11:31:36.652Z,30.01
2018-07-07T11:32:36.648Z,29.82
2018-07-07T11:33:36.656Z,29.93
2018-07-07T11:34:36.662Z,29.44
2018-07-07T11:35:36.662Z,29.35
2018-07-07T11:36:37.037Z,28.97
2018-07-07T11:37:36.669Z,29.46
2018-07-07T11:38:36.676Z,28.97
2018-07-07T11:39:36.677Z,27.53
2018-07-07T11:40:36.680Z,27.82
2018-07-07T11:41:36.685Z,26.17
2018-07-07T11:42:36.691Z,26.94
2018-07-07T11:43:36.696Z,26.84
2018-07-07T11:44:36.702Z,26.55
2018-07-07T11:45:36.707Z,26.84
2018-07-07T11:46:36.708Z,26.94
2018-07-07T11:47:36.716Z,27.53
2018-07-07T11:48:36.719Z,27.34
2018-07-07T11:49:36.470Z,24.91
2018-07-07T11:50:36.985Z,25.2
2018-07-07T11:51:36.735Z,24.82
2018-07-07T11:52:36.738Z,25.01
2018-07-07T11:53:36.743Z,25.09
2018-07-07T11:54:36.766Z,25.2
2018-07-07T11:55:36.752Z,24.91
2018-07-07T11:56:36.505Z,24.82
2018-07-07T11:57:36.510Z,24.63
2018-07-07T11:58:36.780Z,24.82
2018-07-07T11:59:36.773Z,25.31
2018-07-07T12:00:36.526Z,25.21
2018-07-07T12:01:36.788Z,25.31
2018-07-07T12:02:36.788Z,25.99
2018-07-07T12:03:36.792Z,25.9
2018-07-07T12:04:37.060Z,25.6
2018-07-07T12:05:36.806Z,26.09
2018-07-07T12:06:36.815Z,25.9
2018-07-07T12:07:36.813Z,25.51
2018-07-07T12:08:36.821Z,25.8
2018-07-07T12:09:36.826Z,25.7
2018-07-07T12:10:36.830Z,24.83
2018-07-07T12:11:36.615Z,24.33
2018-07-07T12:12:36.838Z,24.91
2018-07-07T12:13:36.841Z,24.71
2018-07-07T12:14:36.852Z,25.29
2018-07-07T12:15:36.852Z,25.78
2018-07-07T12:16:36.856Z,25.27
2018-07-07T12:17:36.609Z,25.18
2018-07-07T12:18:36.867Z,24.5
2018-07-07T12:19:36.869Z,24.4
2018-07-07T12:20:36.873Z,24.4
2018-07-07T12:21:36.879Z,24.6
2018-07-07T12:22:36.879Z,24.49
2018-07-07T12:23:36.633Z,24.21
2018-07-07T12:24:36.637Z,24.4
2018-07-07T12:25:36.896Z,24.39
2018-07-07T12:26:36.902Z,24.68
2018-07-07T12:27:49.387Z,24.58
2018-07-07T12:28:36.907Z,24.1
2018-07-07T12:29:36.912Z,25.07
2018-07-07T12:30:36.666Z,25.26
2018-07-07T12:31:36.936Z,25.36
2018-07-07T12:32:36.921Z,26.23
2018-07-07T12:33:36.949Z,26.72
2018-07-07T12:34:36.927Z,26.23
2018-07-07T12:35:36.934Z,26.92
2018-07-07T12:36:36.688Z,26.34
2018-07-07T12:37:36.939Z,26.25
2018-07-07T12:38:36.948Z,27.03
2018-07-07T12:39:36.947Z,26.54
2018-07-07T12:40:37.136Z,25.86
2018-07-07T12:41:36.707Z,25.47
2018-07-07T12:42:36.713Z,25.67
2018-07-07T12:43:37.003Z,26.62
2018-07-07T12:44:36.736Z,26.33
2018-07-07T12:45:36.967Z,26.43
2018-07-07T12:46:36.721Z,26.53
2018-07-07T12:47:36.975Z,27.11
2018-07-07T12:48:36.978Z,27.01
2018-07-07T12:49:36.985Z,27.11
2018-07-07T12:50:36.986Z,26.92
2018-07-07T12:51:36.999Z,26.14
2018-07-07T12:52:36.741Z,26.9
2018-07-07T12:53:36.995Z,26.81
2018-07-07T12:54:37.001Z,26.51
2018-07-07T12:55:37.002Z,27.37
2018-07-07T12:56:36.755Z,27.67
2018-07-07T12:57:37.028Z,27.47
2018-07-07T12:58:37.015Z,27.96
2018-07-07T12:59:37.016Z,27.86